Aeroporto :
LOGIN :

Iscrizione | Disclaimer

   EN    FR    IT 

 










Sommario :    VFR   VFR Marginale   IFR   IFR Intensivo   IFR Molto Intensivo
Visibilità : 
Base nubi : 
>= 8 km
>= 3000ft
5 / 8 km
1000 / 3000 ft
1500m / 5 km
500 / 1000 ft
800 / 1500m
200 / 500 ft
< 800m
< 200 ft
Simboli :   Temporali  Nebbia  Neve Forte  Precipitazioni Forti  Vento > 20 kt
SIGMETs :   Varie  Temporali  Ghiacco  Turbolenza  Onda orograficha  Ceneri Vulcaniche






- Altitudine del aeroporto : 143 ft
- Codice IATA : VDP


EKVD - Kolding Vamdrup

ULTIMO METAR :
  • 251150Z 24030G43KT 9999 -SHRA SCT008 BKN020CB 05/03 Q0980

METARs OBSOLETI :
  • 251126Z 24034G54KT 9999 -SHRA BKN020 06/03 Q0980
  • 251050Z 24030G41KT 9999 -SHRA BKN020 05/03 Q0981
  • 250950Z 23027KT 9999 FEW010 BKN020 05/03 Q0983 RESH

TAF TAF EKVD
Valido dal 25 a 12 ore il 25 a 17 ore UTC


251142Z 2512/2517 24035G52KT 9000 BKN020
TEMPO 2512/2514 25028G40KT 4000 SHRAGS BKN008 BKN020CB
BECMG 2514/2517 28025G38KT
TEMPO 2514/2517 4000 SHRAGS BKN008 BKN020CB



MetMap, La meteo Aeronautica in un colpo d'occhio ! - Copyright ORBIFLY Dicembre 2007 - Disclaimer

ORBIFLY MET'MAP TEAM :

Programmazione e sviluppo : Alexandra Zaïnal
Concezione : Baudouin d'Aumeries
Aiuto per la programmazione : Marc-Olivier Méhu
Supporto tecnico e logistico : Manuel Goepfert
Aiuto per la traduzione : Arnaldo La Scala

Contatto : metmap@orbifly.com




FONTI E CREDITI :

   NOAA